createdAt,value
2019-03-11T00:01:17.918Z,6.40
2019-03-11T00:06:33.421Z,6.30
2019-03-11T00:11:26.698Z,6.30
2019-03-11T00:16:22.947Z,6.20
2019-03-11T00:21:18.855Z,6.20
2019-03-11T00:26:14.895Z,6.10
2019-03-11T00:31:10.913Z,6.00
2019-03-11T00:36:07.003Z,5.90
2019-03-11T00:41:02.947Z,5.90
2019-03-11T00:46:01.836Z,5.80
2019-03-11T00:50:57.708Z,5.80
2019-03-11T00:55:57.044Z,5.60
2019-03-11T01:00:52.836Z,5.60
2019-03-11T01:05:48.700Z,5.60
2019-03-11T01:10:44.870Z,5.60
2019-03-11T01:15:40.739Z,5.60
2019-03-11T01:20:36.560Z,5.50
2019-03-11T01:25:32.522Z,5.50
2019-03-11T01:30:28.376Z,5.40
2019-03-11T01:35:24.358Z,5.40
2019-03-11T01:40:20.316Z,5.30
2019-03-11T01:45:17.095Z,5.20
2019-03-11T01:50:15.077Z,5.20
2019-03-11T01:55:11.565Z,5.20
2019-03-11T02:00:10.885Z,5.00
2019-03-11T02:05:07.481Z,5.00
2019-03-11T02:10:03.367Z,5.00
2019-03-11T02:14:59.223Z,5.00
2019-03-11T02:19:57.834Z,4.90
2019-03-11T02:24:53.557Z,4.90
2019-03-11T02:29:49.495Z,4.80
2019-03-11T02:34:45.344Z,4.70
2019-03-11T02:39:41.231Z,4.70
2019-03-11T02:44:37.236Z,4.60
2019-03-11T02:49:33.077Z,4.50
2019-03-11T02:54:29.027Z,4.60
2019-03-11T02:59:24.853Z,4.60
2019-03-11T03:04:30.839Z,4.60
2019-03-11T03:09:26.641Z,4.60
2019-03-11T03:14:22.482Z,4.60
2019-03-11T03:19:18.295Z,4.60
2019-03-11T03:24:17.250Z,4.50
2019-03-11T03:29:13.036Z,4.40
2019-03-11T03:34:08.897Z,4.50
2019-03-11T03:39:06.306Z,4.50
2019-03-11T03:44:02.252Z,4.60
2019-03-11T03:48:59.750Z,4.60
2019-03-11T03:53:58.396Z,4.70
2019-03-11T03:58:54.271Z,4.70
2019-03-11T04:04:01.190Z,4.70
2019-03-11T04:08:57.142Z,4.60
2019-03-11T04:13:54.517Z,4.60
2019-03-11T04:18:55.820Z,4.70
2019-03-11T04:23:51.774Z,4.80
2019-03-11T04:28:47.826Z,4.80
2019-03-11T04:33:43.729Z,4.90
2019-03-11T04:38:39.621Z,4.90
2019-03-11T04:43:38.562Z,5.00
2019-03-11T04:48:34.404Z,5.00
2019-03-11T04:53:30.258Z,5.00
2019-03-11T04:58:26.089Z,5.00
2019-03-11T05:03:22.052Z,5.10
2019-03-11T05:08:19.978Z,5.00
2019-03-11T05:13:21.226Z,5.00
2019-03-11T05:18:17.047Z,4.80
2019-03-11T05:23:16.700Z,4.80
2019-03-11T05:28:13.843Z,4.70
2019-03-11T05:33:09.630Z,4.70
2019-03-11T05:38:05.738Z,4.60
2019-03-11T05:43:03.462Z,4.60
2019-03-11T05:48:01.437Z,4.60
2019-03-11T05:52:57.475Z,4.60
2019-03-11T05:57:53.573Z,4.80
2019-03-11T06:02:51.139Z,4.80
2019-03-11T06:07:47.256Z,4.80
2019-03-11T06:12:43.209Z,4.80
2019-03-11T06:17:39.096Z,4.90
2019-03-11T06:22:36.695Z,5.00
2019-03-11T06:27:32.587Z,5.00
2019-03-11T06:32:28.462Z,5.10
2019-03-11T06:37:24.379Z,5.00
2019-03-11T06:42:20.454Z,5.00
2019-03-11T06:47:19.073Z,4.90
2019-03-11T06:52:15.257Z,4.80
2019-03-11T06:57:12.970Z,4.80
2019-03-11T07:02:13.159Z,4.70
2019-03-11T07:07:08.807Z,4.60
2019-03-11T07:12:04.650Z,4.50
2019-03-11T07:38:34.388Z,4.60
2019-03-11T07:43:30.241Z,4.70
2019-03-11T07:48:26.057Z,4.60
2019-03-11T07:53:30.750Z,4.50
2019-03-11T07:58:27.893Z,4.40
2019-03-11T08:03:25.818Z,4.40
2019-03-11T08:08:23.419Z,4.30
2019-03-11T08:13:19.191Z,4.30
2019-03-11T08:18:34.217Z,4.30
2019-03-11T08:23:36.703Z,4.20
2019-03-11T08:28:35.800Z,2.40
2019-03-11T08:33:46.782Z,1.50
2019-03-11T09:05:00.349Z,2.40
2019-03-11T09:09:56.332Z,2.50
2019-03-11T09:34:03.004Z,2.60
2019-03-11T09:38:59.703Z,2.60
2019-03-11T09:43:57.251Z,3.10
2019-03-11T09:48:53.876Z,3.70
2019-03-11T09:53:56.169Z,4.20
2019-03-11T09:58:52.571Z,4.30
2019-03-11T10:03:50.757Z,4.10
2019-03-11T10:08:47.065Z,4.10
2019-03-11T10:14:34.314Z,4.10
2019-03-11T10:19:33.888Z,4.20
2019-03-11T10:24:30.474Z,4.20
2019-03-11T10:29:29.632Z,4.20
2019-03-11T10:34:26.043Z,4.30
2019-03-11T10:39:30.921Z,4.50
2019-03-11T10:44:27.477Z,4.60
2019-03-11T10:49:23.557Z,4.80
2019-03-11T10:54:19.994Z,4.90
2019-03-11T10:59:20.863Z,4.90
2019-03-11T11:04:18.821Z,4.80
2019-03-11T11:09:21.222Z,4.20
2019-03-11T11:14:43.249Z,2.90
2019-03-11T11:27:09.440Z,1.40
2019-03-11T11:38:46.107Z,1.70
2019-03-11T11:43:44.903Z,1.70
2019-03-11T11:55:29.424Z,2.10
2019-03-11T12:00:38.064Z,2.10
2019-03-11T12:14:10.873Z,2.20
2019-03-11T12:25:11.434Z,2.10
2019-03-11T12:30:42.939Z,2.10
2019-03-11T12:35:47.447Z,2.20
2019-03-11T12:40:46.348Z,2.10
2019-03-11T12:45:42.562Z,2.20
2019-03-11T12:50:38.694Z,2.30
2019-03-11T12:55:44.324Z,2.60
2019-03-11T13:00:52.727Z,2.80
2019-03-11T13:06:11.483Z,2.80
2019-03-11T13:11:24.991Z,3.10
2019-03-11T13:16:31.081Z,3.20
2019-03-11T13:21:55.100Z,3.00
2019-03-11T13:26:51.255Z,3.00
2019-03-11T13:31:50.790Z,3.10
2019-03-11T13:36:48.619Z,3.10
2019-03-11T13:41:48.516Z,3.20
2019-03-11T13:46:44.783Z,3.30
2019-03-11T13:51:41.117Z,3.30
2019-03-11T13:56:40.867Z,3.40
2019-03-11T14:01:37.180Z,3.50
2019-03-11T14:06:33.469Z,3.90
2019-03-11T14:11:29.816Z,4.20
2019-03-11T14:16:27.635Z,4.10
2019-03-11T14:21:26.033Z,4.00
2019-03-11T14:26:22.048Z,4.20
2019-03-11T14:31:18.167Z,4.30
2019-03-11T14:36:14.364Z,4.30
2019-03-11T14:41:10.458Z,4.30
2019-03-11T14:46:06.829Z,4.30
2019-03-11T14:52:14.611Z,4.30
2019-03-11T17:27:48.247Z,3.30
2019-03-11T17:32:44.646Z,3.30
2019-03-11T17:37:40.905Z,3.20
2019-03-11T17:42:41.122Z,3.10
2019-03-11T17:47:37.777Z,3.10
2019-03-11T17:52:34.373Z,3.00
2019-03-11T17:58:11.189Z,2.90
2019-03-11T18:03:09.702Z,2.90
2019-03-11T18:08:11.170Z,2.80
2019-03-11T18:13:17.822Z,2.80
2019-03-11T18:30:26.633Z,2.70
2019-03-11T18:35:40.362Z,2.50
2019-03-11T18:40:59.166Z,2.50
2019-03-11T18:59:30.613Z,2.40
2019-03-11T19:05:40.240Z,2.30
2019-03-11T19:10:42.206Z,2.30
2019-03-11T19:21:21.158Z,2.50
2019-03-11T19:31:48.343Z,2.40
2019-03-11T20:11:00.962Z,2.10
2019-03-11T20:16:00.685Z,1.90
2019-03-11T20:20:58.394Z,2.00
2019-03-11T20:25:59.497Z,2.10
2019-03-11T20:30:56.265Z,2.10
2019-03-11T20:35:53.650Z,2.10
2019-03-11T20:40:54.387Z,2.20
2019-03-11T20:45:53.166Z,2.20
2019-03-11T20:51:12.057Z,2.20
2019-03-11T20:56:13.501Z,2.10
2019-03-11T21:01:09.849Z,2.00
2019-03-11T21:06:18.629Z,2.00
2019-03-11T21:11:15.137Z,2.00
2019-03-11T21:16:14.501Z,2.10
2019-03-11T21:21:12.914Z,2.00
2019-03-11T21:26:10.067Z,2.00
2019-03-11T21:31:06.965Z,2.10
2019-03-11T21:36:13.948Z,2.10
2019-03-11T21:41:13.120Z,2.10
2019-03-11T21:46:09.793Z,2.10
2019-03-11T21:51:06.153Z,2.10
2019-03-11T21:56:02.269Z,2.10
2019-03-11T22:00:58.619Z,2.00
2019-03-11T22:05:54.913Z,2.00
2019-03-11T22:10:51.149Z,2.10
2019-03-11T22:15:47.474Z,2.10
2019-03-11T22:20:43.526Z,2.00
2019-03-11T22:25:39.578Z,2.00
2019-03-11T22:30:35.691Z,2.00
2019-03-11T22:35:31.834Z,2.00
2019-03-11T22:40:28.072Z,1.90
2019-03-11T22:45:24.379Z,1.90
2019-03-11T22:50:20.897Z,1.80
2019-03-11T22:55:17.493Z,1.80
2019-03-11T23:00:35.754Z,1.70
2019-03-11T23:05:31.866Z,1.80
2019-03-11T23:10:27.937Z,1.70
2019-03-11T23:15:34.344Z,1.70
2019-03-11T23:20:30.475Z,1.70
2019-03-11T23:25:26.711Z,1.70
2019-03-11T23:30:24.914Z,1.70
2019-03-11T23:35:21.031Z,1.70
2019-03-11T23:40:17.138Z,1.70
2019-03-11T23:45:13.211Z,1.70
2019-03-11T23:50:10.189Z,1.70
2019-03-11T23:55:07.391Z,1.70
